createdAt,value
2023-05-14T00:01:28.263Z,99.90
2023-05-14T00:03:56.960Z,99.90
2023-05-14T00:06:25.434Z,99.90
2023-05-14T00:08:53.478Z,99.90
2023-05-14T00:11:21.561Z,99.90
2023-05-14T00:13:50.715Z,99.90
2023-05-14T00:16:20.877Z,99.90
2023-05-14T00:18:49.233Z,99.90
2023-05-14T00:21:17.633Z,99.90
2023-05-14T00:23:45.832Z,99.90
2023-05-14T00:26:13.992Z,99.90
2023-05-14T00:28:42.559Z,99.90
2023-05-14T00:31:11.231Z,99.90
2023-05-14T00:33:40.711Z,99.90
2023-05-14T00:36:09.880Z,99.90
2023-05-14T00:38:38.005Z,99.90
2023-05-14T00:41:06.463Z,99.90
2023-05-14T00:43:34.809Z,99.90
2023-05-14T00:46:03.238Z,99.90
2023-05-14T00:48:31.468Z,99.90
2023-05-14T00:51:01.692Z,99.90
2023-05-14T00:53:30.180Z,99.90
2023-05-14T00:55:58.893Z,99.90
2023-05-14T00:58:27.156Z,99.90
2023-05-14T01:00:56.350Z,99.90
2023-05-14T01:03:24.652Z,99.90
2023-05-14T01:06:08.423Z,99.90
2023-05-14T01:08:54.390Z,99.90
2023-05-14T01:11:30.770Z,99.90
2023-05-14T01:14:06.863Z,99.90
2023-05-14T01:16:39.025Z,99.90
2023-05-14T01:19:17.770Z,99.90
2023-05-14T01:21:47.605Z,99.90
2023-05-14T01:24:16.064Z,99.90
2023-05-14T01:26:44.305Z,99.90
2023-05-14T01:29:19.947Z,99.90
2023-05-14T01:31:50.307Z,99.90
2023-05-14T01:34:24.140Z,99.90
2023-05-14T01:36:55.259Z,99.90
2023-05-14T01:39:25.835Z,99.90
2023-05-14T01:41:54.504Z,99.90
2023-05-14T01:44:23.882Z,99.90
2023-05-14T01:46:52.101Z,99.90
2023-05-14T01:49:20.312Z,99.90
2023-05-14T01:51:48.502Z,99.90
2023-05-14T01:54:18.151Z,99.90
2023-05-14T01:56:46.339Z,99.90
2023-05-14T01:59:14.205Z,99.90
2023-05-14T02:01:42.323Z,99.90
2023-05-14T02:04:10.963Z,99.90
2023-05-14T02:06:39.096Z,99.90
2023-05-14T02:09:07.658Z,99.90
2023-05-14T02:11:37.533Z,99.90
2023-05-14T02:14:22.666Z,99.90
2023-05-14T02:16:51.395Z,99.90
2023-05-14T02:19:19.512Z,99.90
2023-05-14T02:21:47.583Z,99.90
2023-05-14T02:24:16.667Z,99.90
2023-05-14T02:26:45.933Z,99.90
2023-05-14T02:29:14.127Z,99.90
2023-05-14T02:31:42.225Z,99.90
2023-05-14T02:34:11.630Z,99.90
2023-05-14T02:36:40.305Z,99.90
2023-05-14T02:39:08.330Z,99.90
2023-05-14T02:41:39.825Z,99.90
2023-05-14T02:44:09.105Z,99.90
2023-05-14T02:46:37.546Z,99.90
2023-05-14T02:49:07.631Z,99.90
2023-05-14T02:51:35.833Z,99.90
2023-05-14T02:54:05.081Z,99.90
2023-05-14T02:56:33.020Z,99.90
2023-05-14T02:59:01.023Z,99.90
2023-05-14T03:01:31.057Z,99.90
2023-05-14T03:06:27.797Z,99.90
2023-05-14T03:08:55.694Z,99.90
2023-05-14T03:11:23.704Z,99.90
2023-05-14T03:13:53.186Z,99.90
2023-05-14T03:16:21.699Z,99.90
2023-05-14T03:18:51.426Z,99.90
2023-05-14T03:21:21.208Z,99.90
2023-05-14T03:23:50.527Z,99.90
2023-05-14T03:26:18.743Z,99.90
2023-05-14T03:28:46.769Z,99.90
2023-05-14T03:33:43.258Z,99.90
2023-05-14T03:36:12.980Z,99.90
2023-05-14T03:38:41.154Z,99.90
2023-05-14T03:41:09.442Z,99.90
2023-05-14T03:43:37.417Z,99.90
2023-05-14T03:46:05.667Z,99.90
2023-05-14T03:48:33.687Z,99.90
2023-05-14T03:51:01.994Z,99.90
2023-05-14T03:53:31.720Z,99.90
2023-05-14T03:55:59.965Z,99.90
2023-05-14T03:58:28.438Z,99.90
2023-05-14T04:00:56.766Z,99.90
2023-05-14T04:03:25.767Z,99.90
2023-05-14T04:05:55.755Z,99.90
2023-05-14T04:08:23.985Z,99.90
2023-05-14T04:10:53.292Z,99.90
2023-05-14T04:13:21.361Z,99.90
2023-05-14T04:15:49.526Z,99.90
2023-05-14T04:20:47.193Z,99.90
2023-05-14T04:23:15.107Z,99.90
2023-05-14T04:25:43.394Z,99.90
2023-05-14T04:28:12.780Z,99.90
2023-05-14T04:30:41.276Z,99.90
2023-05-14T04:33:09.407Z,99.90
2023-05-14T04:35:38.128Z,99.90
2023-05-14T04:38:06.415Z,99.90
2023-05-14T04:40:34.963Z,99.90
2023-05-14T04:43:03.467Z,99.90
2023-05-14T04:45:34.409Z,99.90
2023-05-14T04:48:02.547Z,99.90
2023-05-14T04:50:30.755Z,99.90
2023-05-14T04:52:58.685Z,99.90
2023-05-14T04:55:27.423Z,99.90
2023-05-14T04:57:56.081Z,99.90
2023-05-14T05:00:24.628Z,99.90
2023-05-14T05:02:54.720Z,99.90
2023-05-14T05:05:23.061Z,99.90
2023-05-14T05:07:52.237Z,99.90
2023-05-14T05:10:20.193Z,99.90
2023-05-14T05:12:50.792Z,99.90
2023-05-14T05:15:19.109Z,99.90
2023-05-14T05:17:47.419Z,99.90
2023-05-14T05:20:16.975Z,99.90
2023-05-14T05:22:45.350Z,99.90
2023-05-14T05:25:13.394Z,99.90
2023-05-14T05:27:41.738Z,99.90
2023-05-14T05:30:10.796Z,99.90
2023-05-14T05:32:38.833Z,99.90
2023-05-14T05:35:08.775Z,99.90
2023-05-14T05:37:38.188Z,99.90
2023-05-14T05:40:08.188Z,99.90
2023-05-14T05:42:36.429Z,99.90
2023-05-14T05:45:04.704Z,99.90
2023-05-14T05:47:32.838Z,99.90
2023-05-14T05:50:01.318Z,99.90
2023-05-14T05:52:29.648Z,99.90
2023-05-14T05:55:01.595Z,99.90
2023-05-14T05:57:29.847Z,99.90
2023-05-14T05:59:58.012Z,99.90
2023-05-14T06:02:26.394Z,99.90
2023-05-14T06:04:54.556Z,99.90
2023-05-14T06:07:24.012Z,99.90
2023-05-14T06:09:52.452Z,99.90
2023-05-14T06:12:21.736Z,99.90
2023-05-14T06:14:50.128Z,99.90
2023-05-14T06:17:18.340Z,99.90
2023-05-14T06:19:47.202Z,99.90
2023-05-14T06:22:18.620Z,99.90
2023-05-14T06:24:50.158Z,99.90
2023-05-14T06:27:18.138Z,99.90
2023-05-14T06:29:47.564Z,99.90
2023-05-14T06:32:16.111Z,99.90
2023-05-14T06:34:44.680Z,99.90
2023-05-14T06:37:13.101Z,99.90
2023-05-14T06:39:50.413Z,99.90
2023-05-14T06:42:21.685Z,99.90
2023-05-14T06:44:51.241Z,99.90
2023-05-14T06:47:19.522Z,99.90
2023-05-14T06:49:47.633Z,99.90
2023-05-14T06:52:15.505Z,99.90
2023-05-14T06:54:43.413Z,99.90
2023-05-14T06:57:11.631Z,99.90
2023-05-14T06:59:40.011Z,99.90
2023-05-14T07:02:09.490Z,99.90
2023-05-14T07:04:37.724Z,99.90
2023-05-14T07:07:10.774Z,99.90
2023-05-14T07:09:38.721Z,99.90
2023-05-14T07:12:08.077Z,99.90
2023-05-14T07:14:39.458Z,99.90
2023-05-14T07:17:11.117Z,99.90
2023-05-14T07:19:42.563Z,97.50
2023-05-14T07:22:10.883Z,92.50
2023-05-14T07:24:38.842Z,51.30
2023-05-14T07:27:08.839Z,41.70
2023-05-14T07:29:37.274Z,63.60
2023-05-14T07:32:06.009Z,44.00
2023-05-14T07:34:35.536Z,1.00
2023-05-14T07:37:03.766Z,1.00
2023-05-14T07:39:31.971Z,1.00
2023-05-14T07:41:59.937Z,1.00
2023-05-14T07:44:28.090Z,1.00
2023-05-14T07:46:56.261Z,1.00
2023-05-14T07:49:24.455Z,1.00
2023-05-14T07:51:53.733Z,1.00
2023-05-14T07:54:24.087Z,1.00
2023-05-14T07:56:52.381Z,1.00
2023-05-14T08:01:49.751Z,1.00
2023-05-14T08:04:18.415Z,1.00
2023-05-14T08:06:47.641Z,1.00
2023-05-14T08:09:17.177Z,1.00
2023-05-14T08:11:45.514Z,1.00
2023-05-14T08:14:13.475Z,99.90
2023-05-14T08:16:41.479Z,1.00
2023-05-14T08:19:09.779Z,1.00
2023-05-14T08:21:38.108Z,99.90
2023-05-14T08:24:07.153Z,99.90
2023-05-14T08:26:37.005Z,99.90
2023-05-14T08:29:11.243Z,99.90
2023-05-14T08:31:44.322Z,99.90
2023-05-14T08:34:12.411Z,99.90
2023-05-14T08:36:40.465Z,99.90
2023-05-14T08:39:08.856Z,99.90
2023-05-14T08:41:38.875Z,99.90
2023-05-14T08:44:11.954Z,99.90
2023-05-14T08:46:41.221Z,99.90
2023-05-14T08:49:18.908Z,99.90
2023-05-14T08:51:51.756Z,99.90
2023-05-14T08:54:22.477Z,99.90
2023-05-14T08:56:53.805Z,99.90
2023-05-14T08:59:21.854Z,99.90
2023-05-14T09:01:53.430Z,99.90
2023-05-14T09:04:24.116Z,99.90
2023-05-14T09:06:53.551Z,99.90
2023-05-14T09:09:23.110Z,99.90
2023-05-14T09:11:53.671Z,99.90
2023-05-14T09:14:22.009Z,99.90
2023-05-14T09:16:51.304Z,99.90
2023-05-14T09:19:20.320Z,99.90
2023-05-14T09:21:50.835Z,99.90
2023-05-14T09:24:22.657Z,99.90
2023-05-14T09:26:56.314Z,99.90
2023-05-14T09:29:28.832Z,99.90
2023-05-14T09:31:58.214Z,99.90
2023-05-14T09:34:28.084Z,99.90
2023-05-14T09:36:58.023Z,99.90
2023-05-14T09:39:27.451Z,99.90
2023-05-14T09:41:59.610Z,99.90
2023-05-14T09:44:28.504Z,1.00
2023-05-14T09:46:56.690Z,1.00
2023-05-14T09:49:24.710Z,1.00
2023-05-14T09:51:52.928Z,1.00
2023-05-14T09:54:21.000Z,1.00
2023-05-14T09:56:48.898Z,1.00
2023-05-14T09:59:18.506Z,1.00
2023-05-14T10:01:47.820Z,99.90
2023-05-14T10:04:16.565Z,99.90
2023-05-14T10:06:48.781Z,99.90
2023-05-14T10:09:22.205Z,99.90
2023-05-14T10:11:54.258Z,99.90
2023-05-14T10:14:30.589Z,99.90
2023-05-14T10:17:02.484Z,99.90
2023-05-14T10:19:35.133Z,99.90
2023-05-14T10:22:06.137Z,99.90
2023-05-14T10:24:34.636Z,99.90
2023-05-14T10:27:03.475Z,99.90
2023-05-14T10:29:37.991Z,99.90
2023-05-14T10:32:08.942Z,99.90
2023-05-14T10:34:42.675Z,99.90
2023-05-14T10:37:12.938Z,99.90
2023-05-14T10:39:51.464Z,99.90
2023-05-14T10:42:21.485Z,99.90
2023-05-14T10:44:54.990Z,99.90
2023-05-14T10:47:23.732Z,99.90
2023-05-14T10:49:55.067Z,99.90
2023-05-14T10:52:23.637Z,99.90
2023-05-14T10:54:53.327Z,99.90
2023-05-14T10:57:23.048Z,99.90
2023-05-14T10:59:55.199Z,99.90
2023-05-14T11:02:25.878Z,99.90
2023-05-14T11:04:58.825Z,99.90
2023-05-14T11:07:30.228Z,99.90
2023-05-14T11:10:05.604Z,99.90
2023-05-14T11:12:34.510Z,99.90
2023-05-14T11:15:06.125Z,99.90
2023-05-14T11:17:38.665Z,99.90
2023-05-14T11:20:11.747Z,99.90
2023-05-14T11:22:40.952Z,99.90
2023-05-14T11:25:10.154Z,99.90
2023-05-14T11:27:39.701Z,99.90
2023-05-14T11:30:14.588Z,99.90
2023-05-14T11:32:43.781Z,99.90
2023-05-14T11:35:12.085Z,99.90
2023-05-14T11:37:40.288Z,99.90
2023-05-14T11:40:11.013Z,99.90
2023-05-14T11:42:39.703Z,99.90
2023-05-14T11:45:13.103Z,99.90
2023-05-14T11:47:42.931Z,99.90
2023-05-14T11:50:11.867Z,99.90
2023-05-14T11:52:42.073Z,99.90
2023-05-14T11:55:13.517Z,99.90
2023-05-14T11:57:42.036Z,99.90
2023-05-14T12:00:16.862Z,99.90
2023-05-14T12:02:50.074Z,99.90
2023-05-14T12:05:18.564Z,99.90
2023-05-14T12:07:49.193Z,99.90
2023-05-14T12:10:22.268Z,99.90
2023-05-14T12:12:50.719Z,99.90
2023-05-14T12:15:21.828Z,99.90
2023-05-14T12:17:53.033Z,99.90
2023-05-14T12:20:21.150Z,99.90
2023-05-14T12:22:52.493Z,99.90
2023-05-14T12:25:21.035Z,99.90
2023-05-14T12:27:49.300Z,99.90
2023-05-14T12:30:21.695Z,99.90
2023-05-14T12:32:52.756Z,99.90
2023-05-14T12:35:23.367Z,99.90
2023-05-14T12:37:51.577Z,99.90
2023-05-14T12:40:19.866Z,99.90
2023-05-14T12:42:48.450Z,99.90
2023-05-14T12:45:16.731Z,99.90
2023-05-14T12:47:45.421Z,99.90
2023-05-14T12:50:15.531Z,99.90
2023-05-14T12:52:43.424Z,99.90
2023-05-14T12:55:11.522Z,99.90
2023-05-14T12:57:39.848Z,99.90
2023-05-14T13:00:13.674Z,99.90
2023-05-14T13:02:43.970Z,99.90
2023-05-14T13:05:14.146Z,99.90
2023-05-14T13:07:42.234Z,99.90
2023-05-14T13:10:12.077Z,99.90
2023-05-14T13:12:41.516Z,99.90
2023-05-14T13:15:11.091Z,99.90
2023-05-14T13:17:39.052Z,99.90
2023-05-14T13:20:08.349Z,99.90
2023-05-14T13:22:39.419Z,99.90
2023-05-14T13:25:11.721Z,99.90
2023-05-14T13:27:40.057Z,99.90
2023-05-14T13:30:09.332Z,99.90
2023-05-14T13:32:37.584Z,99.90
2023-05-14T13:35:07.752Z,99.90
2023-05-14T13:40:09.423Z,99.90
2023-05-14T13:42:41.988Z,99.90
2023-05-14T13:45:11.726Z,99.90
2023-05-14T13:47:40.350Z,99.90
2023-05-14T13:50:09.744Z,99.90
2023-05-14T13:52:39.284Z,99.90
2023-05-14T13:55:09.953Z,99.90
2023-05-14T13:57:42.724Z,99.90
2023-05-14T14:00:11.187Z,99.90
2023-05-14T14:02:39.165Z,99.90
2023-05-14T14:05:08.324Z,99.90
2023-05-14T14:07:36.471Z,99.90
2023-05-14T14:10:05.714Z,99.90
2023-05-14T14:12:35.920Z,99.90
2023-05-14T14:15:05.349Z,99.90
2023-05-14T14:17:34.090Z,99.90
2023-05-14T14:20:05.046Z,99.90
2023-05-14T14:22:33.569Z,99.90
2023-05-14T14:25:04.242Z,99.90
2023-05-14T14:27:34.990Z,99.90
2023-05-14T14:30:04.921Z,99.90
2023-05-14T14:32:36.645Z,99.90
2023-05-14T14:35:05.223Z,99.90
2023-05-14T14:37:33.700Z,99.90
2023-05-14T14:40:02.665Z,99.90
2023-05-14T14:42:30.623Z,99.90
2023-05-14T14:44:59.849Z,99.90
2023-05-14T14:47:31.532Z,99.90
2023-05-14T14:49:59.887Z,99.90
2023-05-14T14:52:29.421Z,99.90
2023-05-14T14:54:59.044Z,99.90
2023-05-14T14:57:27.296Z,99.90
2023-05-14T14:59:55.529Z,99.90
2023-05-14T15:02:24.144Z,99.90
2023-05-14T15:04:56.134Z,99.90
2023-05-14T15:07:24.298Z,99.90
2023-05-14T15:09:52.404Z,99.90
2023-05-14T15:12:20.729Z,99.90
2023-05-14T15:14:48.834Z,99.90
2023-05-14T15:17:16.952Z,99.90
2023-05-14T15:19:47.661Z,99.90
2023-05-14T15:22:18.604Z,99.90
2023-05-14T15:24:48.119Z,99.90
2023-05-14T15:27:21.192Z,99.90
2023-05-14T15:29:53.329Z,99.90
2023-05-14T15:32:21.635Z,99.90
2023-05-14T15:34:51.757Z,99.90
2023-05-14T15:37:21.456Z,99.90
2023-05-14T15:39:49.405Z,99.90
2023-05-14T15:42:18.007Z,99.90
2023-05-14T15:44:46.471Z,99.90
2023-05-14T15:47:15.125Z,99.90
2023-05-14T15:49:43.020Z,99.90
2023-05-14T15:52:11.333Z,99.90
2023-05-14T15:54:40.684Z,99.90
2023-05-14T15:57:09.327Z,99.90
2023-05-14T15:59:37.771Z,99.90
2023-05-14T16:02:06.108Z,99.90
2023-05-14T16:04:34.089Z,99.90
2023-05-14T16:07:05.936Z,99.90
2023-05-14T16:09:35.264Z,99.90
2023-05-14T16:12:05.286Z,99.90
2023-05-14T16:14:36.835Z,99.90
2023-05-14T16:17:07.388Z,99.90
2023-05-14T16:19:35.594Z,99.90
2023-05-14T16:22:04.011Z,99.90
2023-05-14T16:24:32.151Z,99.90
2023-05-14T16:27:03.181Z,99.90
2023-05-14T16:29:39.169Z,99.90
2023-05-14T16:32:07.526Z,99.90
2023-05-14T16:34:36.751Z,99.90
2023-05-14T16:37:04.966Z,99.90
2023-05-14T16:39:34.618Z,99.90
2023-05-14T16:42:03.240Z,99.90
2023-05-14T16:44:32.884Z,99.90
2023-05-14T16:47:00.863Z,99.90
2023-05-14T16:49:28.956Z,99.90
2023-05-14T16:51:57.586Z,99.90
2023-05-14T16:54:25.808Z,99.90
2023-05-14T16:56:53.777Z,99.90
2023-05-14T16:59:21.868Z,99.90
2023-05-14T17:01:52.178Z,99.90
2023-05-14T17:04:22.220Z,99.90
2023-05-14T17:06:51.907Z,99.90
2023-05-14T17:09:23.795Z,1.00
2023-05-14T17:11:54.585Z,1.00
2023-05-14T17:14:22.865Z,1.00
2023-05-14T17:16:52.504Z,99.90
2023-05-14T17:19:20.703Z,99.90
2023-05-14T17:21:48.993Z,99.90
2023-05-14T17:24:17.195Z,99.90
2023-05-14T17:26:45.298Z,99.90
2023-05-14T17:29:13.522Z,99.90
2023-05-14T17:31:41.492Z,92.30
2023-05-14T17:34:10.804Z,95.80
2023-05-14T17:36:41.835Z,82.40
2023-05-14T17:39:10.122Z,36.40
2023-05-14T17:41:40.547Z,1.00
2023-05-14T17:44:09.479Z,1.00
2023-05-14T17:46:38.744Z,1.00
2023-05-14T17:49:07.147Z,1.00
2023-05-14T17:51:39.153Z,1.00
2023-05-14T17:54:09.643Z,1.00
2023-05-14T17:56:37.612Z,1.00
2023-05-14T17:59:07.211Z,1.00
2023-05-14T18:01:36.147Z,1.00
2023-05-14T18:04:04.662Z,1.00
2023-05-14T18:06:33.058Z,1.00
2023-05-14T18:09:02.819Z,1.00
2023-05-14T18:11:34.007Z,1.00
2023-05-14T18:14:03.240Z,1.00
2023-05-14T18:16:31.634Z,1.00
2023-05-14T18:19:00.856Z,1.00
2023-05-14T18:21:28.724Z,1.00
2023-05-14T18:23:56.837Z,1.00
2023-05-14T18:26:26.729Z,1.00
2023-05-14T18:28:54.875Z,1.00
2023-05-14T18:31:22.881Z,1.00
2023-05-14T18:33:51.651Z,1.00
2023-05-14T18:36:23.177Z,1.00
2023-05-14T18:38:51.036Z,1.00
2023-05-14T18:41:19.548Z,1.00
2023-05-14T18:43:49.233Z,1.00
2023-05-14T18:46:18.189Z,1.00
2023-05-14T18:48:46.232Z,1.00
2023-05-14T18:51:14.505Z,1.00
2023-05-14T18:53:42.564Z,1.00
2023-05-14T18:56:11.315Z,1.00
2023-05-14T18:58:39.301Z,1.00
2023-05-14T19:01:10.115Z,1.00
2023-05-14T19:03:38.442Z,99.90
2023-05-14T19:06:06.994Z,90.40
2023-05-14T19:08:36.110Z,99.90
2023-05-14T19:11:06.034Z,99.90
2023-05-14T19:13:35.023Z,56.20
2023-05-14T19:16:04.054Z,6.80
2023-05-14T19:18:33.528Z,55.30
2023-05-14T19:21:01.681Z,99.90
2023-05-14T19:23:31.570Z,99.90
2023-05-14T19:25:59.791Z,1.00
2023-05-14T19:28:29.219Z,1.00
2023-05-14T19:30:57.387Z,99.90
2023-05-14T19:33:26.078Z,1.00
2023-05-14T19:35:56.700Z,1.00
2023-05-14T19:38:24.885Z,99.90
2023-05-14T19:40:56.786Z,99.90
2023-05-14T19:43:25.516Z,1.00
2023-05-14T19:45:55.012Z,1.00
2023-05-14T19:48:23.134Z,1.00
2023-05-14T19:50:51.838Z,99.90
2023-05-14T19:53:21.443Z,1.00
2023-05-14T19:55:49.793Z,21.10
2023-05-14T19:58:18.116Z,1.00
2023-05-14T20:00:47.406Z,94.00
2023-05-14T20:03:18.005Z,99.90
2023-05-14T20:05:46.632Z,99.90
2023-05-14T20:08:14.476Z,99.90
2023-05-14T20:10:44.640Z,99.90
2023-05-14T20:13:12.849Z,99.90
2023-05-14T20:15:42.869Z,99.90
2023-05-14T20:18:11.204Z,99.90
2023-05-14T20:20:40.211Z,99.90
2023-05-14T20:23:09.473Z,99.90
2023-05-14T20:25:38.473Z,99.90
2023-05-14T20:28:10.558Z,99.90
2023-05-14T20:30:38.940Z,99.90
2023-05-14T20:33:08.170Z,99.90
2023-05-14T20:35:36.164Z,99.90
2023-05-14T20:38:07.494Z,99.90
2023-05-14T20:40:35.636Z,99.90
2023-05-14T20:43:06.784Z,99.90
2023-05-14T20:45:36.412Z,99.90
2023-05-14T20:48:08.812Z,99.90
2023-05-14T20:50:37.187Z,99.90
2023-05-14T20:53:05.759Z,99.90
2023-05-14T20:55:33.924Z,99.90
2023-05-14T20:58:02.133Z,1.00
2023-05-14T21:00:30.079Z,1.00
2023-05-14T21:03:00.272Z,1.00
2023-05-14T21:05:29.234Z,1.00
2023-05-14T21:07:57.186Z,1.00
2023-05-14T21:10:28.468Z,1.00
2023-05-14T21:12:57.529Z,1.00
2023-05-14T21:15:27.228Z,1.00
2023-05-14T21:17:56.741Z,1.00
2023-05-14T21:20:26.063Z,1.00
2023-05-14T21:22:54.165Z,1.00
2023-05-14T21:25:22.164Z,1.00
2023-05-14T21:27:50.558Z,1.00
2023-05-14T21:30:18.770Z,1.00
2023-05-14T21:32:46.796Z,1.00
2023-05-14T21:35:15.020Z,1.00
2023-05-14T21:37:44.541Z,1.00
2023-05-14T21:40:14.162Z,1.00
2023-05-14T21:42:42.122Z,1.00
2023-05-14T21:45:11.571Z,1.00
2023-05-14T21:47:39.784Z,1.00
2023-05-14T21:50:08.622Z,1.00
2023-05-14T21:52:36.584Z,1.50
2023-05-14T21:55:08.148Z,1.00
2023-05-14T21:57:36.180Z,34.10
2023-05-14T22:00:08.459Z,72.80
2023-05-14T22:02:36.640Z,99.90
2023-05-14T22:05:05.399Z,90.00
2023-05-14T22:07:35.905Z,99.90
2023-05-14T22:10:04.326Z,99.90
2023-05-14T22:12:37.082Z,99.90
2023-05-14T22:15:07.124Z,99.90
2023-05-14T22:17:35.106Z,99.90
2023-05-14T22:20:05.580Z,99.90
2023-05-14T22:22:33.716Z,99.90
2023-05-14T22:25:03.595Z,99.90
2023-05-14T22:27:33.013Z,99.90
2023-05-14T22:30:05.110Z,99.90
2023-05-14T22:32:33.611Z,99.90
2023-05-14T22:35:01.811Z,99.90
2023-05-14T22:37:29.745Z,99.90
2023-05-14T22:39:57.590Z,99.90
2023-05-14T22:42:27.236Z,99.90
2023-05-14T22:44:57.005Z,99.90
2023-05-14T22:47:25.448Z,99.90
2023-05-14T22:49:54.200Z,99.90
2023-05-14T22:52:22.198Z,99.90
2023-05-14T22:54:51.193Z,99.90
2023-05-14T22:57:19.116Z,99.90
2023-05-14T22:59:47.289Z,99.90
2023-05-14T23:02:16.660Z,99.90
2023-05-14T23:04:44.740Z,99.90
2023-05-14T23:07:12.960Z,99.90
2023-05-14T23:09:41.757Z,99.90
2023-05-14T23:12:11.061Z,99.90
2023-05-14T23:14:40.552Z,99.90
2023-05-14T23:17:09.111Z,99.90
2023-05-14T23:19:38.499Z,99.90
2023-05-14T23:22:06.761Z,99.90
2023-05-14T23:24:38.505Z,99.90
2023-05-14T23:27:08.944Z,99.90
2023-05-14T23:29:40.869Z,99.90
2023-05-14T23:32:09.405Z,99.90
2023-05-14T23:34:41.998Z,99.90
2023-05-14T23:37:10.584Z,99.90
2023-05-14T23:39:38.683Z,99.90
2023-05-14T23:42:06.988Z,99.90
2023-05-14T23:44:34.922Z,99.90
2023-05-14T23:47:07.277Z,99.90
2023-05-14T23:49:35.682Z,99.90
2023-05-14T23:52:08.275Z,99.90
2023-05-14T23:54:36.502Z,99.90
2023-05-14T23:57:05.229Z,99.90
2023-05-14T23:59:33.418Z,99.90
